EDFH/HHN METAR and TAF weather

Enter ICAO airport designator
Station Type Date Time Source
EDFH METAR 2020/10/29 17:20 UTC NOAA

EDFH 291720Z 23007KT 9999 FEW009 SCT022 08/08 Q1020


Station Type Date Time Source
EDFH Decoded METAR 2020/10/29 17:20 UTC NOAA

Hahn, Germany (EDFH) 49-57N 007-16E 498M
Oct 29, 2020 - 01:20 PM EDT / 2020.10.29 1720 UTC
Wind: from the SW (230 degrees) at 8 MPH (7 KT):0
Visibility: greater than 7 mile(s):0
Sky conditions: partly cloudy
Temperature: 46 F (8 C)
Dew Point: 46 F (8 C)
Relative Humidity: 100%
Pressure (altimeter): 30.12 in. Hg (1020 hPa)
ob: EDFH 291720Z 23007KT 9999 FEW009 SCT022 08/08 Q1020
cycle: 17

Station Type Date Time Source
EDFH TAF 2020/10/29 18:27 UTC NOAA

TAF EDFH 291700Z 2918/3018 23010KT 9999 SCT008 BKN015
TEMPO 2918/2923 2500 RADZ BKN004
TEMPO 2922/3007 24015G25KT
TEMPO 2923/3008 1500 -DZ BCFG BKN002
BECMG 3008/3010 25015G25KT
TEMPO 3008/3011 BKN009
BECMG 3014/3016 25008KT

Example: see airport list